This is the latest recevied weather packets stored in our database for station/object KG7QQL. If no packets are shown the sender has not sent any weather packets the latest 10 day(s).
| Time | Temp. | Humidity | Pressure | Rain* | Wind** | Luminosity | Snow |
|---|---|---|---|---|---|---|---|
| 1778033183 | 18.33° C | 71% | - | 0 mm | - | - | - |
| 1778032880 | 18.33° C | 71% | - | 0 mm | - | - | - |
| 1778032578 | 18.33° C | 71% | - | 0 mm | - | - | - |
| 1778032274 | 17.78° C | 71% | - | 0 mm | - | - | - |
| 1778031972 | 18.33° C | 71% | - | 0 mm | - | - | - |
| 1778031667 | 18.33° C | 71% | - | 0 mm | - | - | - |
| 1778031366 | 18.33° C | 71% | - | 0 mm | - | - | - |
| 1778031062 | 18.89° C | 70% | - | 0 mm | - | - | - |
| 1778030758 | 18.33° C | 70% | - | 0 mm | - | - | - |
| 1778030455 | 18.33° C | 71% | - | 0 mm | - | - | - |
| 1778030153 | 18.33° C | 71% | - | 0 mm | - | - | - |
| 1778029848 | 18.33° C | 71% | - | 0 mm | - | - | - |
| 1778029543 | 18.33° C | 72% | - | 0 mm | - | - | - |
| 1778029239 | 18.33° C | 70% | - | 0 mm | - | - | - |
| 1778028936 | 19.44° C | 69% | - | 0 mm | - | - | - |
| 1778028632 | 18.33° C | 71% | - | 0 mm | - | - | - |
| 1778028329 | 17.78° C | 73% | - | 0 mm | - | - | - |
| 1778028026 | 17.78° C | 73% | - | 0 mm | - | - | - |
| 1778027722 | 17.78° C | 72% | - | 0 mm | - | - | - |
| 1778027418 | 18.33° C | 72% | - | 0 mm | - | - | - |
| 1778027115 | 17.78° C | 72% | - | 0 mm | - | - | - |
| 1778026810 | 18.33° C | 71% | - | 0 mm | - | - | - |
| 1778026507 | 19.44° C | 70% | - | 0 mm | - | - | - |
| 1778026204 | 17.78° C | 73% | - | 0 mm | - | - | - |
| 1778025902 | 17.78° C | 73% | - | 0 mm | - | - | - |
* Rain latest hour (hover to see other rain measurements)
** Current wind speed in m/s (hover to see current wind gust speed)